Bei Facebook empfehlenBei Twitter postenGoogle plusPinterest

Das Wetter im Erzgebirge am 13.03.2017

Wetter und Klima am 13.03.2017 Holzhau im Erzgebirge (630m ü.NN)
Letzte gemessene Temperatur und Uhrzeit der Messung23:45:00 Uhr-0.50 °C
Temperatur (Maximum / Höchstwert) und Uhrzeit der Messung15:00:00 Uhr9.90 °C
Temperatur (Minimum / Tiefstwert) und Uhrzeit der Messung04:15:00-5.10 °C
Errechneter Absolutwert der Temperaturschwankungen zwischen Tmin und Tmax des Tages15.00 K
Errechnete Tagesmitteltemperatur1.65521 °C
Gesamt - Niederschlag des Tages (in flüssiger Form)0.00 Liter / m²
Luftdruck (Maximum / Höchstwert) und Zeitpunkt der Messung23:00:00 Uhr1022.80 hPa
Luftdruck (Minimum / Tiefstwert) und Zeitpunkt der Messung00:15:00 Uhr1016.80 hPa
Errechneter Absolutwert der Luftdruckschwankungen des Tages6.00 hPa
Höchste gemessene Windgeschwindigkeit und Uhrzeit der Messung11:15:00 Uhr15.12 km/h
Errechnete Windhäufigkeit in Relation zu den Messwerten des Tages14.58333 %
Niedrigste Windkühle (Windchill) und Zeitpunkt der Messung04:15:00 Uhr-5.10 °C
Taupunkt (Maximum / Höchstwert) und Uhrzeit der Messung14:30:00 Uhr0.40 °C
Taupunkt (Minimum / Tiefstwert) und Uhrzeit der Messung04:15:00-7.00 °C
Anzahl der automatisch eingelesenen Messwerte 96

Detaillierte Wetter- und Klima- Messwerte für den 13.03.2017 in Holzhau im Erzgebirge (630m ü.NN)
ZeitTemperaturLuftdruckRel. LuftfeuchteWindWindrichtungWindchillTaupunktNiederschlag l/m²
23:45:00-0.50 °C1022.60 hPa84.00 %-3.10 °C 
23:30:00-0.20 °C1022.70 hPa84.00 %-2.80 °C 
23:15:00-0.10 °C1022.60 hPa83.00 %-2.90 °C 
23:00:000.20 °C1022.80 hPa83.00 %-2.30 °C 
22:45:000.30 °C1022.50 hPa82.00 %-2.40 °C 
22:30:000.40 °C1022.70 hPa82.00 %-2.30 °C 
22:15:000.40 °C1022.70 hPa82.00 %-2.30 °C 
22:00:000.40 °C1022.40 hPa82.00 %-2.30 °C 
21:45:000.40 °C1022.20 hPa82.00 %-2.30 °C 
21:30:000.50 °C1022.20 hPa81.00 %-2.40 °C 
21:15:000.50 °C1022.00 hPa81.00 %-2.40 °C 
21:00:000.60 °C1022.00 hPa79.00 %-2.60 °C 
20:45:000.90 °C1021.70 hPa79.00 %-2.30 °C 
20:30:001.00 °C1021.40 hPa78.00 %-2.40 °C 
20:15:001.30 °C1021.30 hPa77.00 %-2.30 °C 
20:00:001.50 °C1021.20 hPa77.00 %-2.10 °C 
19:45:001.60 °C1021.10 hPa77.00 %-2.00 °C 
19:30:001.90 °C1021.10 hPa76.00 %-1.90 °C 
19:15:002.10 °C1020.90 hPa74.00 %-2.00 °C 
19:00:002.40 °C1020.80 hPa73.00 %-1.90 °C 
18:45:002.80 °C1020.60 hPa71.00 %-1.90 °C 
18:30:003.30 °C1020.60 hPa69.00 %-1.80 °C 
18:15:003.90 °C1020.50 hPa66.00 %-1.90 °C 
18:00:004.60 °C1020.50 hPa64.00 %-1.60 °C 
17:45:005.30 °C1020.50 hPa63.00 %-1.20 °C 
17:30:005.80 °C1020.30 hPa62.00 %-0.90 °C 
17:15:006.20 °C1020.20 hPa59.00 %-1.20 °C 
17:00:006.60 °C1019.90 hPa58.00 %-1.10 °C 
16:45:007.10 °C1019.70 hPa56.00 %-1.10 °C 
16:30:007.40 °C1019.60 hPa54.00 %-1.30 °C 
16:15:008.10 °C1019.60 hPa54.00 %-0.60 °C 
16:00:008.40 °C1019.50 hPa54.00 %-0.40 °C 
15:45:008.50 °C1019.60 hPa52.00 %-0.80 °C 
15:30:009.20 °C1019.60 hPa51.00 %-0.40 °C 
15:15:009.60 °C1019.50 hPa51.00 %0.00 °C 
15:00:009.90 °C1019.60 hPa51.00 %0.30 °C 
14:45:009.90 °C1019.70 hPa51.00 %0.30 °C 
14:30:009.80 °C1019.80 hPa52.00 %0.40 °C 
14:15:009.50 °C1019.90 hPa52.00 %0.10 °C 
14:00:009.50 °C1020.10 hPa53.00 %4.32 km/hSO9.50 °C0.40 °C 
13:45:009.40 °C1020.30 hPa53.00 %5.04 km/hNW9.10 °C0.30 °C 
13:30:008.90 °C1020.40 hPa54.00 %1.80 km/hNW8.90 °C0.10 °C 
13:15:008.60 °C1020.30 hPa54.00 %-0.20 °C 
13:00:008.30 °C1020.30 hPa56.00 %0.10 °C 
12:45:007.80 °C1020.40 hPa57.00 %-0.20 °C 
12:30:007.20 °C1020.40 hPa58.00 %4.68 km/hSW7.20 °C-0.50 °C 
12:15:007.10 °C1020.40 hPa60.00 %7.56 km/hSSW5.70 °C-0.10 °C 
12:00:006.90 °C1020.50 hPa63.00 %0.40 °C 
11:45:006.10 °C1020.60 hPa66.00 %0.20 °C 
11:30:005.10 °C1020.70 hPa68.00 %1.08 km/hSSO5.10 °C-0.30 °C 
11:15:004.40 °C1020.50 hPa70.00 %15.12 km/hSW1.00 °C-0.60 °C 
11:00:004.00 °C1020.20 hPa69.00 %7.56 km/hWSW2.10 °C-1.20 °C 
10:45:004.40 °C1020.20 hPa68.00 %3.96 km/hS4.40 °C-1.00 °C 
10:30:004.40 °C1020.10 hPa68.00 %3.60 km/hSSW4.40 °C-1.00 °C 
10:15:004.20 °C1020.10 hPa70.00 %7.20 km/hSSW2.40 °C-0.80 °C 
10:00:003.90 °C1020.00 hPa71.00 %-0.90 °C 
09:45:003.50 °C1020.00 hPa74.00 %-0.70 °C 
09:30:002.90 °C1020.10 hPa75.00 %-1.10 °C 
09:15:002.60 °C1019.90 hPa76.00 %3.24 km/hS2.60 °C-1.20 °C 
09:00:002.40 °C1019.70 hPa80.00 %-0.70 °C 
08:45:002.00 °C1019.60 hPa83.00 %-0.60 °C 
08:30:000.80 °C1019.60 hPa86.00 %-1.30 °C 
08:15:00-0.60 °C1019.50 hPa87.00 %-2.70 °C 
08:00:00-1.40 °C1019.40 hPa88.00 %-3.30 °C 
07:45:00-1.90 °C1019.20 hPa88.00 %-3.80 °C 
07:30:00-2.30 °C1019.00 hPa88.00 %-4.20 °C 
07:15:00-2.50 °C1019.10 hPa89.00 %-4.20 °C 
07:00:00-2.70 °C1018.70 hPa88.00 %-4.60 °C 
06:45:00-2.80 °C1018.50 hPa89.00 %-4.50 °C 
06:30:00-3.00 °C1018.50 hPa89.00 %-4.70 °C 
06:15:00-3.20 °C1018.40 hPa89.00 %-4.90 °C 
06:00:00-3.20 °C1018.30 hPa88.00 %-5.10 °C 
05:45:00-3.00 °C1018.20 hPa89.00 %-4.70 °C 
05:30:00-3.10 °C1018.10 hPa89.00 %-4.80 °C 
05:15:00-3.30 °C1018.00 hPa90.00 %-4.90 °C 
05:00:00-3.50 °C1017.90 hPa90.00 %1.08 km/hSO-3.50 °C-5.10 °C 
04:45:00-4.00 °C1017.70 hPa90.00 %-5.60 °C 
04:30:00-4.80 °C1017.60 hPa89.00 %-6.50 °C 
04:15:00-5.10 °C1017.60 hPa88.00 %-7.00 °C 
04:00:00-5.00 °C1017.60 hPa88.00 %-6.90 °C 
03:45:00-4.70 °C1017.60 hPa87.00 %-6.70 °C 
03:30:00-4.40 °C1017.70 hPa87.00 %-6.50 °C 
03:15:00-3.90 °C1017.50 hPa87.00 %-6.00 °C 
03:00:00-3.60 °C1017.50 hPa88.00 %-5.50 °C 
02:45:00-3.90 °C1017.20 hPa87.00 %-6.00 °C 
02:30:00-4.00 °C1017.00 hPa87.00 %-6.10 °C 
02:15:00-3.90 °C1017.20 hPa87.00 %-6.00 °C 
02:00:00-4.10 °C1017.20 hPa87.00 %-6.20 °C 
01:45:00-4.10 °C1017.50 hPa85.00 %0.72 km/hSO-4.10 °C-6.50 °C 
01:30:00-3.70 °C1017.30 hPa85.00 %-6.10 °C 
01:15:00-3.30 °C1017.40 hPa85.00 %-5.70 °C 
01:00:00-3.50 °C1017.10 hPa86.00 %-5.70 °C 
00:45:00-3.50 °C1017.00 hPa85.00 %-5.90 °C 
00:30:00-3.60 °C1016.90 hPa85.00 %-6.00 °C 
00:15:00-3.80 °C1016.80 hPa84.00 %-6.40 °C 
00:00:00-3.60 °C1016.80 hPa83.00 %-6.40 °C 

Permanenter Link zu dieser Seite: Wetter im Erzgebirge am 13.03.2017
Performance-Info: Die Erstellung der Seite / Statistik(en) / Tabelle(n) erforderte 5 Datenbankserver-Abfrage(n) und dauerte 109 Millisekunden. (Dieser Messwert ist von der Gesamt-Auslastung des Servers abhängig.)
Erzgebirge - Wetter | Erzgebirge - Wetter (Mobilgeräte) | Komplette Klimadatenbank